createdAt,value
2018-06-21T00:01:06.388Z,24.21
2018-06-21T00:03:33.694Z,24.16
2018-06-21T00:06:01.019Z,24.01
2018-06-21T00:08:28.428Z,24.01
2018-06-21T00:10:55.709Z,23.81
2018-06-21T00:13:23.046Z,23.83
2018-06-21T00:15:50.346Z,23.69
2018-06-21T00:21:07.613Z,23.94
2018-06-21T00:23:34.937Z,23.83
2018-06-21T00:26:02.173Z,23.59
2018-06-21T00:28:29.521Z,23.85
2018-06-21T00:30:56.788Z,23.85
2018-06-21T00:33:24.030Z,23.96
2018-06-21T00:35:51.389Z,23.94
2018-06-21T00:38:18.679Z,23.95
2018-06-21T00:40:45.974Z,24.13
2018-06-21T00:43:13.257Z,24.15
2018-06-21T00:45:40.543Z,24.14
2018-06-21T00:48:07.794Z,24.14
2018-06-21T00:50:35.049Z,24.16
2018-06-21T00:53:02.299Z,24.07
2018-06-21T00:55:40.901Z,23.99
2018-06-21T00:58:08.166Z,23.98
2018-06-21T01:00:35.557Z,23.98
2018-06-21T01:03:02.891Z,23.99
2018-06-21T01:05:30.193Z,23.97
2018-06-21T01:07:57.438Z,23.89
2018-06-21T01:10:24.753Z,23.82
2018-06-21T01:12:52.004Z,23.74
2018-06-21T01:15:19.293Z,23.68
2018-06-21T01:17:46.592Z,23.61
2018-06-21T01:20:13.867Z,23.58
2018-06-21T01:22:41.144Z,23.61
2018-06-21T01:25:08.423Z,23.67
2018-06-21T01:27:35.694Z,23.58
2018-06-21T01:30:03.119Z,23.50
2018-06-21T01:32:30.369Z,23.47
2018-06-21T01:34:57.653Z,23.43
2018-06-21T01:37:24.972Z,23.29
2018-06-21T01:39:52.214Z,23.18
2018-06-21T01:42:19.482Z,23.11
2018-06-21T01:44:46.738Z,23.01
2018-06-21T01:47:14.060Z,22.93
2018-06-21T01:49:41.345Z,22.93
2018-06-21T01:52:08.617Z,23.03
2018-06-21T01:54:35.889Z,23.03
2018-06-21T01:57:03.165Z,23.00
2018-06-21T01:59:30.432Z,22.97
2018-06-21T02:01:57.805Z,22.98
2018-06-21T02:04:25.047Z,22.92
2018-06-21T02:06:52.307Z,23.00
2018-06-21T02:09:19.569Z,22.90
2018-06-21T02:11:46.859Z,22.88
2018-06-21T02:14:14.183Z,22.96
2018-06-21T02:16:41.687Z,23.01
2018-06-21T02:19:09.039Z,23.12
2018-06-21T02:21:36.342Z,23.14
2018-06-21T02:24:03.737Z,23.14
2018-06-21T02:26:31.065Z,23.15
2018-06-21T02:28:58.345Z,23.21
2018-06-21T02:31:25.629Z,23.17
2018-06-21T02:33:52.987Z,23.14
2018-06-21T02:36:20.289Z,23.15
2018-06-21T02:38:47.602Z,23.06
2018-06-21T02:41:14.916Z,23.05
2018-06-21T02:43:42.201Z,23.04
2018-06-21T02:46:09.505Z,23.03
2018-06-21T02:48:36.861Z,23.10
2018-06-21T02:51:04.284Z,23.17
2018-06-21T02:53:31.645Z,23.25
2018-06-21T02:55:58.971Z,23.27
2018-06-21T02:58:26.353Z,23.34
2018-06-21T03:00:53.783Z,23.34
2018-06-21T03:03:21.192Z,23.14
2018-06-21T03:05:48.550Z,23.27
2018-06-21T03:08:15.999Z,23.37
2018-06-21T03:10:43.373Z,23.38
2018-06-21T03:13:10.792Z,23.41
2018-06-21T03:15:38.210Z,23.44
2018-06-21T03:18:05.574Z,23.44
2018-06-21T03:20:33.323Z,23.42
2018-06-21T03:23:01.139Z,23.40
2018-06-21T03:25:29.514Z,23.42
2018-06-21T03:27:56.933Z,23.40
2018-06-21T03:30:24.362Z,23.41
2018-06-21T03:32:51.717Z,23.42
2018-06-21T03:35:19.113Z,23.34
2018-06-21T03:37:46.523Z,23.37
2018-06-21T03:40:13.883Z,23.40
2018-06-21T03:42:41.266Z,23.34
2018-06-21T03:45:08.646Z,23.21
2018-06-21T03:47:36.088Z,23.23
2018-06-21T03:50:03.482Z,23.30
2018-06-21T03:52:30.857Z,23.26
2018-06-21T03:54:58.281Z,23.30
2018-06-21T03:57:25.656Z,23.26
2018-06-21T03:59:53.035Z,23.36
2018-06-21T04:02:20.413Z,23.40
2018-06-21T04:04:47.816Z,23.39
2018-06-21T04:07:15.189Z,23.55
2018-06-21T04:09:42.641Z,23.52
2018-06-21T04:12:10.028Z,23.59
2018-06-21T04:14:37.496Z,23.73
2018-06-21T04:17:04.979Z,23.85
2018-06-21T04:19:32.422Z,23.79
2018-06-21T04:21:59.827Z,23.83
2018-06-21T04:24:27.226Z,23.85
2018-06-21T04:26:54.664Z,23.75
2018-06-21T04:29:22.043Z,23.81
2018-06-21T04:31:49.415Z,23.89
2018-06-21T04:34:16.858Z,23.97
2018-06-21T04:36:44.219Z,24.02
2018-06-21T04:39:11.644Z,24.04
2018-06-21T04:41:39.039Z,24.20
2018-06-21T04:44:06.490Z,24.32
2018-06-21T04:46:33.853Z,24.52
2018-06-21T04:49:01.396Z,24.59
2018-06-21T04:51:28.790Z,24.70
2018-06-21T04:53:56.223Z,24.83
2018-06-21T04:56:23.548Z,24.94
2018-06-21T04:58:50.842Z,25.25
2018-06-21T05:01:18.173Z,25.44
2018-06-21T05:03:45.532Z,25.67
2018-06-21T05:06:12.984Z,25.84
2018-06-21T05:08:40.396Z,26.06
2018-06-21T05:11:07.767Z,26.42
2018-06-21T05:13:35.129Z,26.70
2018-06-21T05:16:02.633Z,26.69
2018-06-21T05:18:29.953Z,26.72
2018-06-21T05:20:57.339Z,26.95
2018-06-21T05:23:24.659Z,27.14
2018-06-21T05:25:52.023Z,27.24
2018-06-21T05:28:19.407Z,27.70
2018-06-21T05:30:46.774Z,27.99
2018-06-21T05:33:14.130Z,27.92
2018-06-21T05:35:41.483Z,28.01
2018-06-21T05:38:08.825Z,28.33
2018-06-21T05:40:36.908Z,28.18
2018-06-21T05:43:04.691Z,28.60
2018-06-21T05:45:32.548Z,28.83
2018-06-21T05:48:00.944Z,28.83
2018-06-21T05:50:29.402Z,29.01
2018-06-21T05:52:57.413Z,28.65
2018-06-21T05:55:24.807Z,29.03
2018-06-21T05:57:52.152Z,29.30
2018-06-21T06:00:19.767Z,29.47
2018-06-21T06:02:47.245Z,29.59
2018-06-21T06:05:14.686Z,30.06
2018-06-21T06:07:42.265Z,30.29
2018-06-21T06:10:09.767Z,30.56
2018-06-21T06:12:37.454Z,30.18
2018-06-21T06:15:04.856Z,30.38
2018-06-21T06:17:32.234Z,30.49
2018-06-21T06:20:00.490Z,30.60
2018-06-21T06:22:27.892Z,31.01
2018-06-21T06:24:55.355Z,31.34
2018-06-21T06:27:22.732Z,31.56
2018-06-21T06:29:50.119Z,31.93
2018-06-21T06:32:17.480Z,32.28
2018-06-21T06:34:44.971Z,32.27
2018-06-21T06:37:12.331Z,32.50
2018-06-21T06:39:40.096Z,32.77
2018-06-21T06:42:07.666Z,32.87
2018-06-21T06:44:35.946Z,32.50
2018-06-21T06:47:03.391Z,32.63
2018-06-21T06:49:30.722Z,32.57
2018-06-21T06:51:58.129Z,32.75
2018-06-21T06:54:26.831Z,32.91
2018-06-21T06:56:54.296Z,32.73
2018-06-21T06:59:21.648Z,32.92
2018-06-21T07:01:52.090Z,32.73
2018-06-21T07:04:20.471Z,32.86
2018-06-21T07:06:47.870Z,33.15
2018-06-21T07:09:15.232Z,33.07
2018-06-21T07:11:42.622Z,32.91
2018-06-21T07:14:10.032Z,32.82
2018-06-21T07:16:37.382Z,32.74
2018-06-21T07:19:05.164Z,33.11
2018-06-21T07:21:34.042Z,32.61
2018-06-21T07:24:01.411Z,32.60
2018-06-21T07:26:28.792Z,33.01
2018-06-21T07:28:56.185Z,33.32
2018-06-21T07:31:23.475Z,33.23
2018-06-21T07:33:51.630Z,32.95
2018-06-21T07:36:19.389Z,32.83
2018-06-21T07:38:47.115Z,33.30
2018-06-21T07:41:14.499Z,33.29
2018-06-21T07:43:41.922Z,34.07
2018-06-21T07:46:09.254Z,34.42
2018-06-21T07:48:36.607Z,34.24
2018-06-21T07:51:03.946Z,34.02
2018-06-21T07:53:31.316Z,34.09
2018-06-21T07:55:58.666Z,34.02
2018-06-21T07:58:26.024Z,33.96
2018-06-21T08:00:53.369Z,33.70
2018-06-21T08:03:20.755Z,33.91
2018-06-21T08:05:48.103Z,33.69
2018-06-21T08:08:15.607Z,33.18
2018-06-21T08:10:42.905Z,32.63
2018-06-21T08:13:10.218Z,32.15
2018-06-21T08:15:37.560Z,32.18
2018-06-21T08:18:05.230Z,31.78
2018-06-21T08:20:32.581Z,31.63
2018-06-21T08:22:59.929Z,31.56
2018-06-21T08:25:27.221Z,31.88
2018-06-21T08:27:54.604Z,32.43
2018-06-21T08:30:21.932Z,33.20
2018-06-21T08:32:49.254Z,33.46
2018-06-21T08:35:16.684Z,33.29
2018-06-21T08:37:44.073Z,32.86
2018-06-21T08:40:11.422Z,33.09
2018-06-21T08:42:38.975Z,33.06
2018-06-21T08:45:06.501Z,32.48
2018-06-21T08:47:33.839Z,32.54
2018-06-21T08:50:01.190Z,32.82
2018-06-21T08:52:28.543Z,32.56
2018-06-21T08:54:55.904Z,33.21
2018-06-21T08:57:23.261Z,33.60
2018-06-21T08:59:50.651Z,33.27
2018-06-21T09:02:17.919Z,33.37
2018-06-21T09:04:45.351Z,33.70
2018-06-21T09:07:13.288Z,33.89
2018-06-21T09:09:40.682Z,33.46
2018-06-21T09:12:07.934Z,33.22
2018-06-21T09:14:35.314Z,33.01
2018-06-21T09:17:02.642Z,33.40
2018-06-21T09:19:29.976Z,33.03
2018-06-21T09:21:57.247Z,33.17
2018-06-21T09:24:24.585Z,32.82
2018-06-21T09:26:52.046Z,32.73
2018-06-21T09:29:19.417Z,32.81
2018-06-21T09:31:46.833Z,32.69
2018-06-21T09:34:14.177Z,33.07
2018-06-21T09:36:42.834Z,33.02
2018-06-21T09:39:16.272Z,32.68
2018-06-21T09:41:49.861Z,32.61
2018-06-21T09:44:22.725Z,32.71
2018-06-21T09:46:55.842Z,32.25
2018-06-21T09:49:30.213Z,32.17
2018-06-21T09:51:59.014Z,32.48
2018-06-21T09:54:26.346Z,32.34
2018-06-21T09:56:53.786Z,31.93
2018-06-21T09:59:21.106Z,32.28
2018-06-21T10:01:48.495Z,32.77
2018-06-21T10:04:15.789Z,32.90
2018-06-21T10:06:43.196Z,32.92
2018-06-21T10:09:10.611Z,32.52
2018-06-21T10:11:37.958Z,32.34
2018-06-21T10:14:05.303Z,32.89
2018-06-21T10:16:32.748Z,32.65
2018-06-21T10:19:00.111Z,32.71
2018-06-21T10:21:27.436Z,32.71
2018-06-21T10:23:54.792Z,32.60
2018-06-21T10:26:22.156Z,32.61
2018-06-21T10:28:49.503Z,32.64
2018-06-21T10:31:16.839Z,32.77
2018-06-21T10:33:44.215Z,32.63
2018-06-21T10:36:11.558Z,32.90
2018-06-21T10:38:38.881Z,32.15
2018-06-21T10:41:06.216Z,32.05
2018-06-21T10:43:33.571Z,31.98
2018-06-21T10:46:00.895Z,31.40
2018-06-21T10:48:28.193Z,31.33
2018-06-21T10:50:55.510Z,31.09
2018-06-21T10:53:22.871Z,31.68
2018-06-21T10:55:50.201Z,31.03
2018-06-21T10:58:17.538Z,30.21
2018-06-21T11:00:44.872Z,28.34
2018-06-21T11:03:12.264Z,26.62
2018-06-21T11:05:39.598Z,25.24
2018-06-21T11:08:07.045Z,24.90
2018-06-21T11:10:34.431Z,24.80
2018-06-21T11:13:01.815Z,25.06
2018-06-21T11:15:29.154Z,24.85
2018-06-21T11:17:56.510Z,24.82
2018-06-21T11:20:23.861Z,24.28
2018-06-21T11:22:51.225Z,24.52
2018-06-21T11:25:18.549Z,23.62
2018-06-21T11:27:45.936Z,23.59
2018-06-21T11:30:13.341Z,23.46
2018-06-21T11:32:40.741Z,23.47
2018-06-21T11:35:08.116Z,23.14
2018-06-21T11:37:35.542Z,22.76
2018-06-21T11:40:02.928Z,22.77
2018-06-21T11:42:30.307Z,23.28
2018-06-21T11:44:57.639Z,23.13
2018-06-21T11:47:24.965Z,22.62
2018-06-21T11:49:52.357Z,22.61
2018-06-21T11:52:19.719Z,22.82
2018-06-21T11:54:47.051Z,23.18
2018-06-21T11:57:14.402Z,23.23
2018-06-21T11:59:56.856Z,23.23
2018-06-21T12:02:39.395Z,22.88
2018-06-21T12:05:21.521Z,22.86
2018-06-21T12:08:01.608Z,23.17
2018-06-21T12:10:37.152Z,23.20
2018-06-21T12:13:04.539Z,23.00
2018-06-21T12:15:32.009Z,22.81
2018-06-21T12:17:59.481Z,23.21
2018-06-21T12:20:26.893Z,23.23
2018-06-21T12:22:54.245Z,23.37
2018-06-21T12:25:21.654Z,23.27
2018-06-21T12:27:49.070Z,23.19
2018-06-21T12:30:16.501Z,23.18
2018-06-21T12:32:43.936Z,23.32
2018-06-21T12:35:11.386Z,23.24
2018-06-21T12:37:38.872Z,23.51
2018-06-21T12:40:06.278Z,23.71
2018-06-21T12:42:33.630Z,23.97
2018-06-21T12:45:01.078Z,24.50
2018-06-21T12:47:28.448Z,24.97
2018-06-21T12:49:55.836Z,25.28
2018-06-21T12:52:24.250Z,25.27
2018-06-21T12:54:51.672Z,25.77
2018-06-21T12:57:19.246Z,25.84
2018-06-21T12:59:46.689Z,25.83
2018-06-21T13:02:14.229Z,25.65
2018-06-21T13:04:42.120Z,26.01
2018-06-21T13:07:09.707Z,25.88
2018-06-21T13:09:48.513Z,25.63
2018-06-21T13:12:29.465Z,25.64
2018-06-21T13:14:57.298Z,25.98
2018-06-21T13:17:25.922Z,26.35
2018-06-21T13:19:53.339Z,27.11
2018-06-21T13:22:20.813Z,27.02
2018-06-21T13:24:48.276Z,27.12
2018-06-21T13:27:15.747Z,27.27
2018-06-21T13:29:43.203Z,27.63
2018-06-21T13:32:10.689Z,27.87
2018-06-21T13:34:38.518Z,27.59
2018-06-21T13:37:06.375Z,27.66
2018-06-21T13:39:33.840Z,26.85
2018-06-21T13:42:01.646Z,26.45
2018-06-21T13:44:29.583Z,26.35
2018-06-21T13:46:57.020Z,26.55
2018-06-21T13:49:31.173Z,25.97
2018-06-21T13:51:58.843Z,25.77
2018-06-21T13:54:26.397Z,25.91
2018-06-21T13:56:53.973Z,25.74
2018-06-21T13:59:21.386Z,25.79
2018-06-21T14:01:49.625Z,26.16
2018-06-21T14:04:17.011Z,26.12
2018-06-21T14:06:44.805Z,25.68
2018-06-21T14:09:12.649Z,25.34
2018-06-21T14:11:40.502Z,24.92
2018-06-21T14:14:07.956Z,25.32
2018-06-21T14:16:35.702Z,25.22
2018-06-21T14:19:03.092Z,24.89
2018-06-21T14:21:30.418Z,25.01
2018-06-21T14:23:57.779Z,24.80
2018-06-21T14:26:25.815Z,24.66
2018-06-21T14:28:53.288Z,24.81
2018-06-21T14:31:21.755Z,24.52
2018-06-21T14:33:49.181Z,24.82
2018-06-21T14:36:16.708Z,24.93
2018-06-21T14:38:44.156Z,25.59
2018-06-21T14:41:11.585Z,25.98
2018-06-21T14:43:39.438Z,25.79
2018-06-21T14:46:07.080Z,25.44
2018-06-21T14:48:34.643Z,25.35
2018-06-21T14:51:02.344Z,25.01
2018-06-21T14:53:30.046Z,24.87
2018-06-21T14:55:57.927Z,24.95
2018-06-21T14:58:25.764Z,24.61
2018-06-21T15:00:53.209Z,24.63
2018-06-21T15:03:20.977Z,24.93
2018-06-21T15:05:48.647Z,24.87
2018-06-21T15:08:16.084Z,25.00
2018-06-21T15:10:43.645Z,24.89
2018-06-21T15:13:11.522Z,24.79
2018-06-21T15:15:38.949Z,24.63
2018-06-21T15:18:06.625Z,24.61
2018-06-21T15:20:34.385Z,24.49
2018-06-21T15:23:02.025Z,24.33
2018-06-21T15:25:29.829Z,24.08
2018-06-21T15:27:57.628Z,23.56
2018-06-21T15:30:25.220Z,23.50
2018-06-21T15:32:52.872Z,23.75
2018-06-21T15:35:20.643Z,24.18
2018-06-21T15:37:48.200Z,23.95
2018-06-21T15:40:16.231Z,24.24
2018-06-21T15:42:44.128Z,24.26
2018-06-21T15:45:12.211Z,23.87
2018-06-21T15:47:40.012Z,23.63
2018-06-21T15:50:07.903Z,23.65
2018-06-21T15:52:35.825Z,23.55
2018-06-21T15:55:03.821Z,23.41
2018-06-21T15:57:31.486Z,23.15
2018-06-21T15:59:59.153Z,23.24
2018-06-21T16:02:26.810Z,23.43
2018-06-21T16:04:54.535Z,23.75
2018-06-21T16:07:22.400Z,23.54
2018-06-21T16:09:50.549Z,23.71
2018-06-21T16:12:18.409Z,23.76
2018-06-21T16:14:46.327Z,23.84
2018-06-21T16:17:14.018Z,23.46
2018-06-21T16:19:41.391Z,23.66
2018-06-21T16:22:08.990Z,23.41
2018-06-21T16:24:36.827Z,23.52
2018-06-21T16:27:04.434Z,23.43
2018-06-21T16:29:32.555Z,23.43
2018-06-21T16:32:00.090Z,23.69
2018-06-21T16:34:27.742Z,23.49
2018-06-21T16:36:55.692Z,23.55
2018-06-21T16:39:23.226Z,23.23
2018-06-21T16:41:51.114Z,22.67
2018-06-21T16:44:18.690Z,22.64
2018-06-21T16:46:46.484Z,22.85
2018-06-21T16:49:14.726Z,22.57
2018-06-21T16:51:42.500Z,22.66
2018-06-21T16:54:10.172Z,22.51
2018-06-21T16:56:37.943Z,22.29
2018-06-21T16:59:05.450Z,22.45
2018-06-21T17:01:33.074Z,22.70
2018-06-21T17:04:00.955Z,22.55
2018-06-21T17:06:28.626Z,22.36
2018-06-21T17:08:56.093Z,22.22
2018-06-21T17:11:23.623Z,22.10
2018-06-21T17:13:52.292Z,22.10
2018-06-21T17:16:21.038Z,22.30
2018-06-21T17:18:50.844Z,22.11
2018-06-21T17:21:19.413Z,21.62
2018-06-21T17:23:47.995Z,22.16
2018-06-21T17:26:17.376Z,21.81
2018-06-21T17:28:45.940Z,21.97
2018-06-21T17:31:13.764Z,21.86
2018-06-21T17:33:41.798Z,21.81
2018-06-21T17:36:09.792Z,21.33
2018-06-21T17:38:37.449Z,21.74
2018-06-21T17:41:05.437Z,21.37
2018-06-21T17:43:39.694Z,21.50
2018-06-21T17:46:11.921Z,21.34
2018-06-21T17:48:40.047Z,21.33
2018-06-21T17:51:08.629Z,21.68
2018-06-21T17:53:37.500Z,21.74
2018-06-21T17:56:10.101Z,21.63
2018-06-21T17:58:39.945Z,21.29
2018-06-21T18:01:09.262Z,21.18
2018-06-21T18:03:39.322Z,21.19
2018-06-21T18:06:07.596Z,21.14
2018-06-21T18:08:35.214Z,21.15
2018-06-21T18:11:03.018Z,20.84
2018-06-21T18:13:31.210Z,20.86
2018-06-21T18:15:58.867Z,20.88
2018-06-21T18:18:26.594Z,21.00
2018-06-21T18:20:54.263Z,20.75
2018-06-21T18:23:21.951Z,20.81
2018-06-21T18:25:49.500Z,20.78
2018-06-21T18:28:17.196Z,20.58
2018-06-21T18:30:44.874Z,20.83
2018-06-21T18:33:13.112Z,20.46
2018-06-21T18:35:40.807Z,20.61
2018-06-21T18:38:08.580Z,20.77
2018-06-21T18:40:36.498Z,20.67
2018-06-21T18:43:04.387Z,20.38
2018-06-21T18:45:32.165Z,20.52
2018-06-21T18:48:01.265Z,20.40
2018-06-21T18:50:29.898Z,20.11
2018-06-21T18:52:57.832Z,20.46
2018-06-21T18:55:26.464Z,20.58
2018-06-21T18:57:55.058Z,20.46
2018-06-21T19:00:23.004Z,20.19
2018-06-21T19:02:54.199Z,19.97
2018-06-21T19:05:22.674Z,20.09
2018-06-21T19:07:56.983Z,20.38
2018-06-21T19:10:30.488Z,20.31
2018-06-21T19:13:01.546Z,20.05
2018-06-21T19:15:33.574Z,20.08
2018-06-21T19:18:01.241Z,19.85
2018-06-21T19:20:31.815Z,19.79
2018-06-21T19:22:59.373Z,19.79
2018-06-21T19:25:26.894Z,19.78
2018-06-21T19:27:55.625Z,19.62
2018-06-21T19:30:23.193Z,19.51
2018-06-21T19:32:50.928Z,19.47
2018-06-21T19:35:18.945Z,19.85
2018-06-21T19:37:48.370Z,19.89
2018-06-21T19:40:18.313Z,19.83
2018-06-21T19:42:46.481Z,19.63
2018-06-21T19:45:13.994Z,19.56
2018-06-21T19:47:41.854Z,19.62
2018-06-21T19:50:10.447Z,19.57
2018-06-21T19:52:37.782Z,19.53
2018-06-21T19:55:06.005Z,19.55
2018-06-21T19:57:34.120Z,19.46
2018-06-21T20:00:01.844Z,19.33
2018-06-21T20:02:36.298Z,19.06
2018-06-21T20:05:03.931Z,19.27
2018-06-21T20:07:31.217Z,18.89
2018-06-21T20:09:58.894Z,18.70
2018-06-21T20:12:26.241Z,18.55
2018-06-21T20:14:53.497Z,18.65
2018-06-21T20:17:20.751Z,18.80
2018-06-21T20:19:53.583Z,18.67
2018-06-21T20:22:20.886Z,18.49
2018-06-21T20:24:48.142Z,18.70
2018-06-21T20:27:15.410Z,18.62
2018-06-21T20:29:42.690Z,18.70
2018-06-21T20:32:09.978Z,18.79
2018-06-21T20:34:37.236Z,18.95
2018-06-21T20:37:09.078Z,18.80
2018-06-21T20:39:36.392Z,19.00
2018-06-21T20:42:03.646Z,18.82
2018-06-21T20:44:30.869Z,18.93
2018-06-21T20:46:58.135Z,18.63
2018-06-21T20:49:25.370Z,18.69
2018-06-21T20:51:52.618Z,18.60
2018-06-21T20:54:19.864Z,18.36
2018-06-21T20:56:47.143Z,18.21
2018-06-21T20:59:14.403Z,18.45
2018-06-21T21:01:41.661Z,18.71
2018-06-21T21:04:08.926Z,18.43
2018-06-21T21:06:36.171Z,18.31
2018-06-21T21:09:05.255Z,18.30
2018-06-21T21:11:32.506Z,18.15
2018-06-21T21:13:59.765Z,18.08
2018-06-21T21:16:26.978Z,17.97
2018-06-21T21:18:54.236Z,18.09
2018-06-21T21:21:21.471Z,18.06
2018-06-21T21:23:48.738Z,17.97
2018-06-21T21:26:16.023Z,18.17
2018-06-21T21:28:43.308Z,18.24
2018-06-21T21:31:10.615Z,18.15
2018-06-21T21:33:37.834Z,18.02
2018-06-21T21:36:05.124Z,17.95
2018-06-21T21:38:32.397Z,17.77
2018-06-21T21:40:59.648Z,17.90
2018-06-21T21:43:26.870Z,18.01
2018-06-21T21:45:54.094Z,18.20
2018-06-21T21:48:21.329Z,18.06
2018-06-21T21:50:48.546Z,18.06
2018-06-21T21:53:15.789Z,17.67
2018-06-21T21:55:43.014Z,17.35
2018-06-21T21:58:11.092Z,17.38
2018-06-21T22:00:46.483Z,17.33
2018-06-21T22:03:13.825Z,17.08
2018-06-21T22:05:41.168Z,17.23
2018-06-21T22:08:08.723Z,17.48
2018-06-21T22:10:36.074Z,17.33
2018-06-21T22:13:03.480Z,17.41
2018-06-21T22:15:30.731Z,16.97
2018-06-21T22:17:58.050Z,16.86
2018-06-21T22:20:25.429Z,16.95
2018-06-21T22:22:52.702Z,16.74
2018-06-21T22:25:19.941Z,16.78
2018-06-21T22:27:47.194Z,16.68
2018-06-21T22:30:14.494Z,16.56
2018-06-21T22:32:41.845Z,16.67
2018-06-21T22:35:09.064Z,16.89
2018-06-21T22:37:36.295Z,16.77
2018-06-21T22:40:03.561Z,16.84
2018-06-21T22:42:30.798Z,16.58
2018-06-21T22:44:58.030Z,16.35
2018-06-21T22:47:25.264Z,16.35
2018-06-21T22:49:52.507Z,16.11
2018-06-21T22:52:19.754Z,16.23
2018-06-21T22:54:46.989Z,16.19
2018-06-21T22:57:14.250Z,16.23
2018-06-21T22:59:41.468Z,16.35
2018-06-21T23:02:08.729Z,16.59
2018-06-21T23:04:35.975Z,16.35
2018-06-21T23:07:03.180Z,16.13
2018-06-21T23:09:30.488Z,16.23
2018-06-21T23:11:57.722Z,16.27
2018-06-21T23:14:24.979Z,16.02
2018-06-21T23:16:54.445Z,16.06
2018-06-21T23:19:27.751Z,16.24
2018-06-21T23:21:55.064Z,16.53
2018-06-21T23:24:22.856Z,16.73
2018-06-21T23:26:50.455Z,16.79
2018-06-21T23:29:17.626Z,16.39
2018-06-21T23:31:44.899Z,16.43
2018-06-21T23:34:12.136Z,16.65
2018-06-21T23:36:39.391Z,16.56
2018-06-21T23:39:08.157Z,16.60
2018-06-21T23:41:35.391Z,16.63
2018-06-21T23:44:02.749Z,16.31
2018-06-21T23:46:29.948Z,16.26
2018-06-21T23:48:57.194Z,16.16
2018-06-21T23:51:24.395Z,16.25
2018-06-21T23:53:51.676Z,16.29
2018-06-21T23:56:18.914Z,16.26
2018-06-21T23:58:46.119Z,16.35
